createdAt,value
2023-01-29T00:00:15.893Z,109.53
2023-01-29T00:02:44.646Z,115.13
2023-01-29T00:05:26.961Z,113.40
2023-01-29T00:07:58.601Z,114.18
2023-01-29T00:10:27.675Z,111.47
2023-01-29T00:12:56.310Z,115.80
2023-01-29T00:15:24.811Z,113.78
2023-01-29T00:17:53.161Z,113.40
2023-01-29T00:20:21.724Z,112.72
2023-01-29T00:22:50.160Z,119.25
2023-01-29T00:25:20.008Z,114.15
2023-01-29T00:27:48.535Z,110.35
2023-01-29T00:30:19.812Z,119.90
2023-01-29T00:32:48.696Z,120.03
2023-01-29T00:35:17.308Z,113.45
2023-01-29T00:37:45.712Z,120.95
2023-01-29T00:40:15.339Z,118.32
2023-01-29T00:43:04.692Z,120.22
2023-01-29T00:45:33.164Z,113.38
2023-01-29T00:48:01.655Z,119.28
2023-01-29T00:50:31.386Z,120.38
2023-01-29T00:53:02.371Z,122.10
2023-01-29T00:55:30.828Z,117.90
2023-01-29T00:58:01.594Z,111.57
2023-01-29T01:00:30.145Z,119.53
2023-01-29T01:03:06.616Z,119.88
2023-01-29T01:05:36.947Z,115.10
2023-01-29T01:08:26.780Z,120.90
2023-01-29T01:11:01.970Z,119.15
2023-01-29T01:13:33.828Z,120.03
2023-01-29T01:16:02.596Z,120.28
2023-01-29T01:18:31.829Z,110.82
2023-01-29T01:21:00.512Z,121.68
2023-01-29T01:23:29.080Z,123.55
2023-01-29T01:25:57.589Z,117.43
2023-01-29T01:28:26.265Z,122.75
2023-01-29T01:30:56.707Z,121.23
2023-01-29T01:33:25.562Z,119.22
2023-01-29T01:35:54.076Z,123.95
2023-01-29T01:38:22.547Z,118.43
2023-01-29T01:40:50.996Z,119.40
2023-01-29T01:43:19.378Z,118.93
2023-01-29T01:45:48.519Z,116.43
2023-01-29T01:48:23.048Z,119.47
2023-01-29T01:50:54.973Z,116.28
2023-01-29T01:53:27.977Z,118.20
2023-01-29T01:56:02.678Z,115.65
2023-01-29T01:58:37.245Z,116.50
2023-01-29T02:01:08.006Z,117.60
2023-01-29T02:04:01.785Z,113.10
2023-01-29T02:06:47.867Z,116.93
2023-01-29T02:09:33.493Z,116.07
2023-01-29T02:12:03.932Z,112.85
2023-01-29T02:14:34.530Z,115.63
2023-01-29T02:17:03.265Z,114.50
2023-01-29T02:19:48.373Z,112.43
2023-01-29T02:23:09.629Z,119.35
2023-01-29T02:26:30.987Z,115.15
2023-01-29T02:29:22.499Z,116.15
2023-01-29T02:32:17.271Z,110.78
2023-01-29T02:35:16.468Z,115.72
2023-01-29T02:37:55.363Z,112.07
2023-01-29T02:40:32.271Z,114.00
2023-01-29T02:43:13.855Z,113.30
2023-01-29T02:45:50.462Z,113.75
2023-01-29T02:48:23.905Z,112.35
2023-01-29T02:50:59.928Z,108.05
2023-01-29T02:53:35.229Z,110.45
2023-01-29T02:56:11.401Z,108.28
2023-01-29T02:58:44.410Z,109.20
2023-01-29T03:01:20.821Z,112.55
2023-01-29T03:03:53.980Z,101.47
2023-01-29T03:06:28.379Z,99.88
2023-01-29T03:09:01.690Z,98.00
2023-01-29T03:11:36.412Z,101.15
2023-01-29T03:14:10.507Z,100.23
2023-01-29T03:16:43.931Z,99.05
2023-01-29T03:19:17.807Z,102.63
2023-01-29T03:21:51.393Z,100.90
2023-01-29T03:24:43.714Z,99.50
2023-01-29T03:27:32.640Z,99.38
2023-01-29T03:30:20.284Z,100.18
2023-01-29T03:32:52.546Z,103.45
2023-01-29T03:35:35.505Z,100.47
2023-01-29T03:38:05.501Z,100.33
2023-01-29T03:40:47.048Z,103.25
2023-01-29T03:43:27.902Z,104.18
2023-01-29T03:46:05.925Z,102.47
2023-01-29T03:48:41.051Z,102.50
2023-01-29T03:51:23.637Z,101.35
2023-01-29T03:53:58.472Z,102.32
2023-01-29T03:56:39.334Z,100.45
2023-01-29T03:59:19.541Z,100.32
2023-01-29T04:01:53.040Z,100.73
2023-01-29T04:04:28.014Z,101.13
2023-01-29T04:07:03.017Z,101.20
2023-01-29T04:09:37.497Z,100.30
2023-01-29T04:12:10.550Z,98.82
2023-01-29T04:14:40.297Z,98.55
2023-01-29T04:17:14.342Z,97.93
2023-01-29T04:19:44.973Z,99.30
2023-01-29T04:22:18.472Z,98.00
2023-01-29T04:24:48.450Z,95.05
2023-01-29T04:27:31.028Z,95.55
2023-01-29T04:30:19.404Z,95.00
2023-01-29T04:33:07.868Z,97.28
2023-01-29T04:35:56.113Z,96.15
2023-01-29T04:38:38.623Z,96.72
2023-01-29T04:41:12.609Z,96.47
2023-01-29T04:43:47.044Z,95.10
2023-01-29T04:46:19.471Z,95.30
2023-01-29T04:49:11.394Z,93.30
2023-01-29T04:51:51.351Z,95.20
2023-01-29T04:54:30.870Z,94.28
2023-01-29T04:57:10.432Z,94.22
2023-01-29T04:59:46.277Z,97.40
2023-01-29T05:02:15.435Z,92.18
2023-01-29T05:04:47.318Z,94.80
2023-01-29T05:07:18.566Z,93.18
2023-01-29T05:09:47.573Z,95.15
2023-01-29T05:12:18.703Z,93.88
2023-01-29T05:14:48.694Z,94.82
2023-01-29T05:17:20.296Z,95.13
2023-01-29T05:19:49.839Z,93.40
2023-01-29T05:22:22.817Z,93.35
2023-01-29T05:24:51.654Z,94.60
2023-01-29T05:27:44.907Z,95.60
2023-01-29T05:30:14.070Z,95.88
2023-01-29T05:32:42.588Z,94.00
2023-01-29T05:35:11.203Z,94.35
2023-01-29T05:37:41.023Z,94.65
2023-01-29T05:40:12.085Z,95.07
2023-01-29T05:42:40.520Z,94.70
2023-01-29T05:45:11.022Z,93.28
2023-01-29T05:47:39.457Z,96.63
2023-01-29T05:50:09.593Z,94.37
2023-01-29T05:52:38.019Z,93.93
2023-01-29T05:55:10.484Z,94.15
2023-01-29T05:57:40.527Z,93.65
2023-01-29T06:00:13.204Z,95.78
2023-01-29T06:02:41.723Z,93.63
2023-01-29T06:05:10.839Z,92.93
2023-01-29T06:07:41.239Z,92.07
2023-01-29T06:10:14.868Z,93.20
2023-01-29T06:12:44.980Z,94.05
2023-01-29T06:15:15.470Z,96.65
2023-01-29T06:17:44.562Z,93.70
2023-01-29T06:20:15.350Z,94.38
2023-01-29T06:22:43.961Z,95.05
2023-01-29T06:25:13.853Z,96.18
2023-01-29T06:27:42.257Z,96.38
2023-01-29T06:30:12.461Z,96.50
2023-01-29T06:32:40.943Z,94.87
2023-01-29T06:35:10.839Z,97.03
2023-01-29T06:37:39.541Z,94.83
2023-01-29T06:40:10.944Z,97.80
2023-01-29T06:42:40.814Z,98.45
2023-01-29T06:45:11.304Z,95.50
2023-01-29T06:47:39.860Z,96.13
2023-01-29T06:50:08.924Z,95.30
2023-01-29T06:52:37.488Z,94.75
2023-01-29T06:55:07.223Z,94.15
2023-01-29T06:57:35.606Z,95.05
2023-01-29T07:00:06.584Z,93.05
2023-01-29T07:02:35.017Z,92.18
2023-01-29T07:05:03.441Z,91.82
2023-01-29T07:07:31.884Z,92.72
2023-01-29T07:10:00.303Z,90.18
2023-01-29T07:12:28.725Z,89.53
2023-01-29T07:14:57.215Z,89.15
2023-01-29T07:17:27.119Z,88.40
2023-01-29T07:19:55.516Z,89.45
2023-01-29T07:22:23.906Z,88.20
2023-01-29T07:24:52.320Z,88.35
2023-01-29T07:27:20.697Z,88.65
2023-01-29T07:29:49.103Z,88.00
2023-01-29T07:32:17.547Z,87.88
2023-01-29T07:34:47.344Z,87.75
2023-01-29T07:37:15.749Z,88.55
2023-01-29T07:39:44.577Z,88.82
2023-01-29T07:42:13.063Z,86.80
2023-01-29T07:44:41.546Z,86.60
2023-01-29T07:47:09.958Z,89.00
2023-01-29T07:49:38.345Z,86.18
2023-01-29T07:52:08.177Z,85.75
2023-01-29T07:54:36.532Z,86.68
2023-01-29T07:57:05.183Z,85.87
2023-01-29T07:59:33.636Z,87.43
2023-01-29T08:02:02.040Z,86.75
2023-01-29T08:04:30.507Z,87.57
2023-01-29T08:06:58.919Z,85.95
2023-01-29T08:09:28.904Z,88.22
2023-01-29T08:11:57.285Z,87.22
2023-01-29T08:14:25.872Z,87.90
2023-01-29T08:16:54.247Z,86.57
2023-01-29T08:19:22.656Z,87.88
2023-01-29T08:21:51.031Z,86.47
2023-01-29T08:24:19.745Z,88.72
2023-01-29T08:26:49.681Z,89.40
2023-01-29T08:29:18.210Z,88.20
2023-01-29T08:31:46.902Z,89.40
2023-01-29T08:34:15.378Z,87.57
2023-01-29T08:36:43.831Z,88.18
2023-01-29T08:39:12.514Z,88.05
2023-01-29T08:41:40.880Z,89.82
2023-01-29T08:44:11.112Z,88.25
2023-01-29T08:46:40.755Z,91.55
2023-01-29T08:49:10.332Z,90.10
2023-01-29T08:51:38.748Z,89.90
2023-01-29T08:54:07.305Z,90.80
2023-01-29T08:56:35.708Z,93.43
2023-01-29T08:59:04.174Z,90.80
2023-01-29T09:01:34.111Z,91.53
2023-01-29T09:04:02.606Z,91.43
2023-01-29T09:06:31.106Z,90.30
2023-01-29T09:08:59.554Z,90.75
2023-01-29T09:11:28.201Z,91.00
2023-01-29T09:13:56.634Z,91.43
2023-01-29T09:16:25.068Z,92.05
2023-01-29T09:18:56.108Z,91.80
2023-01-29T09:21:24.539Z,92.47
2023-01-29T09:23:53.003Z,93.53
2023-01-29T09:26:21.447Z,91.70
2023-01-29T09:28:49.922Z,94.80
2023-01-29T09:31:18.488Z,94.18
2023-01-29T09:33:46.973Z,92.72
2023-01-29T09:36:16.781Z,94.10
2023-01-29T09:38:45.216Z,93.00
2023-01-29T09:41:34.967Z,93.10
2023-01-29T09:44:12.557Z,95.15
2023-01-29T09:46:43.844Z,93.68
2023-01-29T09:49:22.319Z,96.20
2023-01-29T09:51:57.048Z,96.78
2023-01-29T09:54:32.191Z,95.88
2023-01-29T09:57:01.855Z,96.57
2023-01-29T09:59:32.997Z,95.45
2023-01-29T10:02:10.670Z,94.17
2023-01-29T10:05:14.273Z,95.47
2023-01-29T10:08:41.914Z,96.45
2023-01-29T10:11:28.201Z,97.20
2023-01-29T10:14:09.836Z,96.93
2023-01-29T10:16:56.657Z,98.07
2023-01-29T10:19:58.658Z,94.80
2023-01-29T10:22:52.927Z,96.00
2023-01-29T10:25:24.394Z,95.43
2023-01-29T10:27:56.235Z,98.00
2023-01-29T10:30:38.599Z,95.07
2023-01-29T10:33:14.676Z,96.78
2023-01-29T10:35:45.709Z,96.45
2023-01-29T10:38:25.444Z,97.50
2023-01-29T10:41:12.403Z,98.68
2023-01-29T10:43:53.978Z,98.28
2023-01-29T10:46:37.341Z,99.40
2023-01-29T10:49:24.191Z,99.00
2023-01-29T10:52:09.504Z,105.93
2023-01-29T10:54:57.407Z,102.65
2023-01-29T10:57:49.440Z,103.50
2023-01-29T11:00:23.918Z,101.43
2023-01-29T11:02:53.529Z,100.87
2023-01-29T11:05:27.955Z,99.80
2023-01-29T11:08:05.866Z,100.15
2023-01-29T11:10:41.885Z,98.28
2023-01-29T11:13:16.541Z,100.18
2023-01-29T11:15:45.674Z,102.38
2023-01-29T11:18:16.132Z,101.65
2023-01-29T11:20:47.208Z,101.40
2023-01-29T11:23:29.697Z,101.05
2023-01-29T11:25:59.704Z,102.45
2023-01-29T11:28:41.202Z,104.40
2023-01-29T11:31:23.416Z,103.53
2023-01-29T11:33:55.214Z,103.97
2023-01-29T11:36:33.759Z,102.00
2023-01-29T11:39:21.517Z,104.87
2023-01-29T11:41:54.777Z,106.53
2023-01-29T11:44:32.993Z,103.32
2023-01-29T11:47:17.578Z,103.40
2023-01-29T11:49:51.254Z,105.25
2023-01-29T11:52:24.088Z,105.90
2023-01-29T11:54:58.013Z,105.28
2023-01-29T11:57:31.895Z,104.45
2023-01-29T12:00:06.425Z,105.57
2023-01-29T12:02:38.551Z,105.78
2023-01-29T12:05:17.378Z,104.45
2023-01-29T12:07:49.803Z,106.90
2023-01-29T12:10:35.626Z,105.57
2023-01-29T12:13:19.177Z,104.18
2023-01-29T12:15:50.158Z,106.38
2023-01-29T12:18:27.700Z,104.93
2023-01-29T12:21:01.115Z,107.47
2023-01-29T12:23:40.116Z,106.43
2023-01-29T12:26:13.747Z,106.95
2023-01-29T12:28:51.841Z,106.95
2023-01-29T12:31:34.407Z,109.80
2023-01-29T12:34:12.162Z,110.10
2023-01-29T12:36:45.047Z,108.13
2023-01-29T12:39:17.740Z,107.18
2023-01-29T12:41:52.475Z,109.55
2023-01-29T12:44:25.673Z,110.00
2023-01-29T12:47:00.130Z,110.20
2023-01-29T12:49:34.079Z,110.78
2023-01-29T12:52:10.474Z,112.43
2023-01-29T12:54:43.547Z,112.55
2023-01-29T12:57:24.320Z,112.40
2023-01-29T12:59:59.750Z,110.18
2023-01-29T13:02:40.721Z,111.18
2023-01-29T13:05:21.952Z,110.20
2023-01-29T13:07:55.691Z,110.97
2023-01-29T13:10:31.119Z,110.13
2023-01-29T13:13:04.980Z,110.00
2023-01-29T13:15:37.525Z,110.60
2023-01-29T13:18:42.523Z,109.70
2023-01-29T13:21:17.322Z,107.35
2023-01-29T13:23:48.846Z,112.07
2023-01-29T13:26:20.642Z,110.25
2023-01-29T13:28:50.362Z,111.93
2023-01-29T13:31:31.645Z,109.50
2023-01-29T13:34:15.818Z,109.32
2023-01-29T13:36:46.907Z,108.85
2023-01-29T13:39:26.949Z,108.75
2023-01-29T13:41:57.086Z,109.03
2023-01-29T13:44:29.821Z,109.63
2023-01-29T13:47:01.828Z,108.53
2023-01-29T13:49:38.633Z,107.25
2023-01-29T13:52:27.332Z,110.00
2023-01-29T13:55:00.454Z,109.82
2023-01-29T13:57:56.271Z,110.05
2023-01-29T14:00:59.413Z,110.20
2023-01-29T14:04:03.618Z,109.25
2023-01-29T14:06:45.632Z,110.87
2023-01-29T14:09:57.524Z,108.82
2023-01-29T14:12:51.941Z,114.05
2023-01-29T14:15:31.242Z,113.57
2023-01-29T14:18:18.383Z,107.45
2023-01-29T14:21:03.476Z,109.60
2023-01-29T14:23:43.530Z,107.28
2023-01-29T14:26:30.103Z,107.60
2023-01-29T14:29:04.046Z,110.43
2023-01-29T14:31:40.604Z,108.45
2023-01-29T14:34:19.244Z,106.23
2023-01-29T14:36:55.289Z,108.87
2023-01-29T14:39:36.451Z,108.32
2023-01-29T14:42:17.629Z,107.85
2023-01-29T14:45:11.583Z,106.60
2023-01-29T14:48:01.993Z,109.85
2023-01-29T14:50:57.570Z,109.00
2023-01-29T14:53:46.444Z,108.55
2023-01-29T14:56:28.956Z,109.57
2023-01-29T14:59:06.354Z,109.35
2023-01-29T15:01:39.396Z,108.63
2023-01-29T15:04:18.027Z,112.28
2023-01-29T15:06:49.314Z,110.88
2023-01-29T15:09:36.817Z,107.78
2023-01-29T15:12:19.126Z,109.15
2023-01-29T15:14:57.972Z,108.10
2023-01-29T15:17:30.924Z,108.40
2023-01-29T15:19:59.698Z,110.75
2023-01-29T15:22:30.000Z,108.55
2023-01-29T15:25:11.626Z,107.22
2023-01-29T15:27:43.976Z,108.10
2023-01-29T15:30:19.957Z,109.47
2023-01-29T15:32:49.186Z,109.47
2023-01-29T15:35:30.107Z,110.32
2023-01-29T15:38:05.071Z,110.60
2023-01-29T15:40:33.856Z,109.97
2023-01-29T15:43:04.752Z,113.07
2023-01-29T15:45:35.159Z,109.15
2023-01-29T15:48:08.687Z,108.22
2023-01-29T15:50:41.401Z,105.63
2023-01-29T15:53:17.056Z,107.50
2023-01-29T15:55:46.786Z,108.40
2023-01-29T15:58:24.133Z,107.45
2023-01-29T16:00:55.245Z,108.40
2023-01-29T16:03:26.589Z,109.43
2023-01-29T16:05:55.821Z,107.93
2023-01-29T16:08:27.184Z,110.70
2023-01-29T16:10:59.265Z,108.38
2023-01-29T16:13:31.470Z,119.40
2023-01-29T16:16:02.536Z,122.00
2023-01-29T16:18:35.970Z,106.73
2023-01-29T16:21:08.872Z,106.50
2023-01-29T16:23:43.058Z,107.18
2023-01-29T16:26:18.490Z,105.55
2023-01-29T16:28:49.394Z,109.90
2023-01-29T16:31:24.962Z,108.18
2023-01-29T16:33:53.842Z,107.97
2023-01-29T16:36:25.403Z,105.65
2023-01-29T16:38:57.220Z,105.32
2023-01-29T16:41:35.984Z,109.13
2023-01-29T16:44:36.374Z,106.93
2023-01-29T16:47:13.581Z,107.47
2023-01-29T16:49:49.947Z,107.57
2023-01-29T16:52:23.975Z,106.50
2023-01-29T16:54:53.220Z,107.88
2023-01-29T16:57:26.110Z,106.15
2023-01-29T17:00:00.231Z,108.35
2023-01-29T17:02:33.376Z,109.63
2023-01-29T17:05:07.534Z,107.83
2023-01-29T17:07:37.984Z,109.85
2023-01-29T17:10:08.550Z,116.07
2023-01-29T17:12:38.888Z,114.78
2023-01-29T17:15:33.507Z,109.90
2023-01-29T17:18:02.941Z,115.20
2023-01-29T17:20:33.063Z,113.65
2023-01-29T17:23:01.937Z,116.15
2023-01-29T17:25:31.050Z,111.50
2023-01-29T17:28:02.713Z,107.50
2023-01-29T17:30:37.576Z,110.22
2023-01-29T17:33:14.276Z,110.00
2023-01-29T17:35:43.429Z,110.13
2023-01-29T17:38:24.318Z,115.40
2023-01-29T17:40:58.140Z,113.27
2023-01-29T17:43:30.613Z,113.97
2023-01-29T17:46:01.140Z,111.13
2023-01-29T17:48:31.954Z,112.18
2023-01-29T17:51:04.623Z,116.93
2023-01-29T17:53:45.174Z,111.33
2023-01-29T17:56:19.778Z,113.63
2023-01-29T17:58:48.340Z,114.82
2023-01-29T18:01:18.339Z,111.90
2023-01-29T18:03:47.880Z,113.85
2023-01-29T18:06:27.593Z,110.97
2023-01-29T18:08:58.517Z,116.82
2023-01-29T18:11:28.218Z,109.90
2023-01-29T18:13:58.782Z,111.23
2023-01-29T18:16:37.193Z,118.28
2023-01-29T18:19:16.888Z,112.85
2023-01-29T18:21:47.045Z,113.50
2023-01-29T18:24:17.275Z,114.53
2023-01-29T18:26:47.128Z,112.13
2023-01-29T18:29:16.275Z,111.97
2023-01-29T18:31:49.444Z,113.47
2023-01-29T18:34:18.238Z,110.70
2023-01-29T18:36:48.001Z,113.28
2023-01-29T18:39:19.530Z,110.43
2023-01-29T18:41:48.078Z,110.15
2023-01-29T18:44:16.730Z,113.07
2023-01-29T18:46:49.963Z,113.20
2023-01-29T18:49:18.621Z,112.10
2023-01-29T18:51:47.154Z,112.20
2023-01-29T18:54:18.410Z,113.37
2023-01-29T18:57:13.156Z,110.82
2023-01-29T18:59:38.049Z,113.27
2023-01-29T19:02:12.232Z,183.50
2023-01-29T19:04:41.074Z,107.47
2023-01-29T19:07:11.175Z,108.55
2023-01-29T19:09:40.787Z,106.13
2023-01-29T19:12:09.774Z,111.53
2023-01-29T19:14:38.265Z,106.18
2023-01-29T19:17:09.086Z,110.27
2023-01-29T19:19:37.990Z,107.28
2023-01-29T19:22:06.567Z,108.43
2023-01-29T19:24:39.033Z,105.78
2023-01-29T19:27:08.892Z,106.82
2023-01-29T19:29:37.617Z,106.05
2023-01-29T19:32:08.963Z,103.25
2023-01-29T19:34:37.861Z,104.37
2023-01-29T19:37:06.601Z,106.72
2023-01-29T19:39:36.254Z,103.63
2023-01-29T19:42:06.291Z,103.88
2023-01-29T19:44:35.321Z,103.53
2023-01-29T19:47:05.707Z,101.85
2023-01-29T19:49:36.891Z,103.63
2023-01-29T19:52:07.542Z,105.53
2023-01-29T19:54:36.737Z,102.47
2023-01-29T19:57:07.615Z,100.95
2023-01-29T19:59:38.755Z,102.82
2023-01-29T20:02:07.840Z,100.72
2023-01-29T20:04:38.195Z,100.72
2023-01-29T20:07:06.739Z,100.45
2023-01-29T20:09:35.283Z,98.13
2023-01-29T20:12:07.477Z,101.60
2023-01-29T20:14:37.405Z,101.18
2023-01-29T20:17:07.773Z,101.95
2023-01-29T20:19:37.765Z,102.00
2023-01-29T20:22:06.827Z,102.45
2023-01-29T20:24:39.905Z,101.20
2023-01-29T20:27:09.439Z,103.60
2023-01-29T20:29:38.387Z,102.07
2023-01-29T20:32:09.273Z,103.35
2023-01-29T20:34:39.902Z,105.15
2023-01-29T20:37:11.022Z,103.03
2023-01-29T20:39:39.530Z,105.53
2023-01-29T20:42:09.556Z,105.63
2023-01-29T20:44:38.363Z,107.32
2023-01-29T20:47:07.066Z,108.30
2023-01-29T20:49:35.699Z,110.78
2023-01-29T20:52:07.797Z,109.40
2023-01-29T20:54:40.151Z,111.95
2023-01-29T20:57:08.963Z,114.53
2023-01-29T20:59:37.735Z,114.55
2023-01-29T21:02:06.345Z,114.70
2023-01-29T21:04:34.889Z,115.10
2023-01-29T21:07:04.775Z,112.97
2023-01-29T21:09:33.338Z,112.82
2023-01-29T21:12:01.793Z,113.60
2023-01-29T21:14:30.213Z,118.03
2023-01-29T21:16:58.714Z,117.43
2023-01-29T21:19:27.836Z,119.70
2023-01-29T21:21:57.953Z,120.82
2023-01-29T21:24:28.444Z,125.93
2023-01-29T21:26:56.931Z,122.23
2023-01-29T21:29:25.428Z,120.15
2023-01-29T21:31:53.879Z,123.68
2023-01-29T21:34:22.338Z,125.03
2023-01-29T21:36:50.848Z,121.25
2023-01-29T21:39:21.035Z,125.83
2023-01-29T21:42:10.128Z,124.20
2023-01-29T21:44:38.921Z,128.70
2023-01-29T21:47:12.454Z,130.10
2023-01-29T21:49:42.480Z,127.10
2023-01-29T21:52:13.671Z,128.90
2023-01-29T21:54:45.693Z,127.78
2023-01-29T21:57:16.453Z,129.23
2023-01-29T21:59:50.033Z,128.70
2023-01-29T22:02:23.004Z,130.98
2023-01-29T22:04:52.404Z,132.02
2023-01-29T22:07:20.875Z,128.30
2023-01-29T22:09:49.455Z,126.27
2023-01-29T22:12:19.384Z,135.23
2023-01-29T22:14:48.169Z,135.20
2023-01-29T22:17:17.407Z,133.63
2023-01-29T22:19:45.896Z,130.45
2023-01-29T22:22:15.652Z,130.38
2023-01-29T22:24:45.886Z,133.90
2023-01-29T22:27:14.962Z,134.88
2023-01-29T22:29:44.885Z,133.90
2023-01-29T22:32:13.360Z,129.27
2023-01-29T22:34:41.777Z,133.88
2023-01-29T22:37:10.337Z,137.30
2023-01-29T22:39:38.750Z,138.13
2023-01-29T22:42:07.382Z,131.13
2023-01-29T22:44:36.072Z,135.57
2023-01-29T22:47:06.089Z,131.80
2023-01-29T22:49:34.740Z,131.35
2023-01-29T22:52:11.888Z,133.73
2023-01-29T22:54:42.354Z,132.55
2023-01-29T22:57:12.370Z,133.95
2023-01-29T22:59:41.561Z,134.98
2023-01-29T23:02:11.423Z,134.63
2023-01-29T23:04:39.966Z,130.60
2023-01-29T23:07:08.414Z,131.32
2023-01-29T23:09:36.862Z,130.60
2023-01-29T23:12:06.384Z,132.40
2023-01-29T23:14:34.949Z,127.50
2023-01-29T23:17:03.375Z,125.10
2023-01-29T23:19:33.137Z,133.77
2023-01-29T23:22:01.703Z,132.68
2023-01-29T23:24:30.293Z,134.13
2023-01-29T23:27:24.565Z,129.82
2023-01-29T23:29:53.039Z,126.22
2023-01-29T23:32:22.896Z,128.20
2023-01-29T23:34:52.783Z,129.38
2023-01-29T23:37:21.218Z,127.93
2023-01-29T23:39:50.983Z,129.23
2023-01-29T23:42:19.506Z,125.65
2023-01-29T23:44:47.937Z,126.05
2023-01-29T23:47:16.426Z,126.72
2023-01-29T23:49:44.849Z,124.68
2023-01-29T23:52:14.691Z,122.65
2023-01-29T23:54:43.186Z,121.43
2023-01-29T23:57:11.615Z,120.57
2023-01-29T23:59:40.063Z,122.47
